Latest Coastal Weather Observations for Hopetoun North

IDW60701

Issued at 1:12 am WST Tuesday 12 December 2017 (issued every 10 minutes, with the page automatically refreshed every 10 minutes)

About coastal observations | Map of coastal stations | Coastal observations for WA | Marine services | Other Formats
Station Details ID: 009961 Name: HOPETOUN NORTH Lat: -33.93 Lon: 120.13 Height: 26.0 m
Data from the previous 72 hours. | See also: Recent months at Hopetoun North
Date/Time
WST
Temp
°C
Wind Pressure Rain since
9am
mm
Weather Cloud Vis
km
Sea
Height
m
Swell
Dir  Spd
kts
Gust
kts
hPa Trend Height
m
Period
s
Dir
12/01:00am 18.8 NW 1 2 1008.5 - 0.0 - - - - - - -
12/12:30am 18.4 WSW 4 6 1009.0 - 0.0 - - - - - - -
12/12:00am 18.6 N 2 2 1009.0 - 0.0 - - - - - - -
 
Date/Time
WST
Temp
°C
Wind Pressure Rain since
9am
mm
Weather Cloud Vis
km
Sea
Height
m
Swell
Dir  Spd
kts
Gust
kts
hPa Trend Height
m
Period
s
Dir
11/11:30pm 18.7 NW 2 3 1009.0 - 0.0 - - - - - - -
11/11:00pm 19.0 NW 3 4 1009.2 - 0.0 - - - - - - -
11/10:30pm 19.3 NW 2 3 1009.5 - 0.0 - - - - - - -
11/10:00pm 19.5 SW 9 13 1009.7 - 0.0 - - - - - - -
11/09:30pm 19.6 SW 14 21 1010.3 - 0.0 - - - - - - -
11/09:17pm 19.6 SW 15 25 1010.3 - 0.0 - - - - - - -
11/09:00pm 19.8 SW 14 20 1009.9 - 0.0 - - - - - - -
11/08:30pm 20.1 SW 15 20 1009.3 - 0.0 - - - - - - -
11/08:00pm 20.3 SW 15 22 1009.2 - 0.0 - - - - - - -
11/07:42pm 20.3 WSW 16 24 1009.4 - 0.0 - - - - - - -
11/07:30pm 20.4 W 8 13 1009.1 - 0.0 - - - - - - -
11/07:00pm 20.6 WSW 7 11 1007.7 - 0.0 - - - - - - -
11/06:30pm 21.5 SW 6 10 1007.3 - 0.0 - - - - - - -
11/06:00pm 21.1 S 12 15 1006.1 - 0.0 - - - - - - -
11/05:30pm 21.5 SW 7 10 1007.4 - 0.0 - - - - - - -
11/05:00pm 22.0 SW 6 9 1007.2 - 0.0 - - - - - - -
11/04:30pm 24.1 SSW 7 10 1006.8 - 0.0 - - - - - - -
11/04:00pm 24.4 S 7 10 1006.8 - 0.0 - - - - - - -
11/03:30pm 23.0 S 6 9 1006.9 - 0.0 - - - - - - -
11/03:00pm 22.5 SSW 9 12 1007.2 - 0.0 - - - - - - -
11/02:30pm 23.0 SSW 10 13 1007.5 - 0.0 - - - - - - -
11/02:00pm 23.9 S 11 15 1007.5 - 0.0 - - - - - - -
11/01:30pm 25.0 SSW 9 12 1007.8 - 0.0 - - - - - - -
11/01:00pm 25.0 SW 11 13 1007.9 - 0.0 - - - - - - -
11/12:30pm 26.0 SW 9 13 1008.2 - 0.0 - - - - - - -
11/12:00pm 27.9 SSW 8 10 1008.7 - 0.0 - - - - - - -
11/11:30am 29.7 ESE 6 8 1009.0 - 0.0 - - - - - - -
11/11:00am 28.0 SE 4 7 1009.3 - 0.0 - - - - - - -
11/10:30am 27.1 SE 6 7 1009.6 - 0.0 - - - - - - -
11/10:00am 26.6 SE 5 8 1010.0 - 0.0 - - - - - - -
11/09:30am 27.4 S 5 6 1010.1 - 0.0 - - - - - - -
11/09:00am 26.3 SSW 4 5 1010.8 - 0.0 - - - - - - -
11/08:30am 30.2 SW 4 6 1011.3 - 0.0 - - - - - - -
11/08:00am 30.5 WNW 2 4 1011.6 - 0.0 - - - - - - -
11/07:30am 27.6 NNW 3 5 1012.1 - 0.0 - - - - - - -
11/07:00am 23.7 ENE 8 13 1012.0 - 0.0 - - - - - - -
11/06:30am 24.9 WNW 5 8 1012.3 - 0.0 - - - - - - -
11/06:00am 25.0 ENE 3 7 1011.6 - 0.0 - - - - - - -
11/05:30am 25.0 E 4 6 1011.3 - 0.0 - - - - - - -
11/05:00am 24.2 NNE 2 3 1011.6 - 0.0 - - - - - - -
11/04:30am 25.8 NNW 1 4 1011.3 - 0.0 - - - - - - -
11/04:00am 25.6 NNW 3 5 1011.1 - 0.0 - - - - - - -
11/03:30am 24.9 ENE 6 12 1011.0 - 0.0 - - - - - - -
11/03:00am 24.6 NE 5 7 1011.0 - 0.0 - - - - - - -
11/02:30am 24.7 ENE 6 7 1010.9 - 0.0 - - - - - - -
11/02:00am 24.5 ENE 7 11 1011.0 - 0.0 - - - - - - -
11/01:30am 25.8 E 3 8 1010.7 - 0.0 - - - - - - -
11/01:00am 26.3 NNW 5 11 1010.6 - 0.0 - - - - - - -
11/12:30am 23.9 NE 4 6 1011.1 - 0.0 - - - - - - -
11/12:00am 25.2 NE 3 5 1011.0 - 0.0 - - - - - - -
 
Date/Time
WST
Temp
°C
Wind Pressure Rain since
9am
mm
Weather Cloud Vis
km
Sea
Height
m
Swell
Dir  Spd
kts
Gust
kts
hPa Trend Height
m
Period
s
Dir
10/11:30pm 26.1 NNW 3 5 1011.1 - 0.0 - - - - - - -
10/11:00pm 26.7 N 3 3 1011.6 - 0.0 - - - - - - -
10/10:30pm 27.8 N 5 6 1011.8 - 0.0 - - - - - - -
10/10:00pm 27.5 N 5 6 1011.9 - 0.0 - - - - - - -
10/09:30pm 26.5 NE 6 6 1011.9 - 0.0 - - - - - - -
10/09:00pm 26.2 NE 6 7 1011.9 - 0.0 - - - - - - -
10/08:30pm 26.9 ENE 6 7 1011.7 - 0.0 - - - - - - -
10/08:00pm 28.3 E 6 8 1011.4 - 0.0 - - - - - - -
10/07:30pm 29.8 E 8 11 1011.2 - 0.0 - - - - - - -
10/07:00pm 31.3 E 8 15 1011.2 - 0.0 - - - - - - -
10/06:30pm 31.8 ENE 12 19 1010.8 - 0.0 - - - - - - -
10/06:00pm 29.2 ESE 10 13 1010.5 - 0.0 - - - - - - -
10/05:30pm 30.8 E 9 16 1010.5 - 0.0 - - - - - - -
10/05:00pm 29.2 E 9 15 1010.6 - 0.0 - - - - - - -
10/04:30pm 28.0 E 11 15 1010.4 - 0.0 - - - - - - -
10/04:00pm 26.5 ESE 11 16 1010.6 - 0.0 - - - - - - -
10/03:30pm 28.7 ESE 8 13 1010.8 - 0.0 - - - - - - -
10/03:00pm 25.3 ESE 11 17 1010.9 - 0.0 - - - - - - -
10/02:30pm 27.9 ESE 14 20 1010.7 - 0.0 - - - - - - -
10/02:00pm 29.4 ESE 16 23 1011.0 - 0.0 - - - - - - -
10/01:30pm 30.5 ESE 16 23 1011.3 - 0.0 - - - - - - -
10/01:22pm 31.1 ESE 15 25 1011.2 - 0.0 - - - - - - -
10/01:00pm 30.2 ESE 15 23 1011.5 - 0.0 - - - - - - -
10/12:30pm 29.7 ESE 14 21 1011.7 - 0.0 - - - - - - -
10/12:00pm 29.2 ESE 15 20 1012.0 - 0.0 - - - - - - -
10/11:30am 29.8 ESE 13 18 1012.4 - 0.0 - - - - - - -
10/11:29am 29.7 ESE 13 18 1012.4 - 0.0 - - - - - - -
10/11:00am 34.7 E 9 12 1012.6 - 0.0 - - - - - - -
10/10:30am 37.5 NNE 11 31 1012.7 - 0.0 - - - - - - -
10/10:00am 37.0 N 9 17 1012.9 - 0.0 - - - - - - -
10/09:30am 36.4 N 9 15 1013.2 - 0.0 - - - - - - -
10/09:00am 34.8 N 11 18 1013.5 - 0.0 - - - - - - -
10/08:30am 33.5 N 10 15 1013.7 - 0.0 - - - - - - -
10/08:00am 31.6 N 11 15 1013.9 - 0.0 - - - - - - -
10/07:30am 29.1 NNE 7 9 1014.0 - 0.0 - - - - - - -
10/07:00am 25.7 NE 4 7 1014.1 - 0.0 - - - - - - -
10/06:30am 21.9 NE 4 6 1013.8 - 0.0 - - - - - - -
10/06:00am 18.8 ENE 4 5 1013.8 - 0.0 - - - - - - -
10/05:30am 16.2 ENE 5 6 1013.7 - 0.0 - - - - - - -
10/05:00am 16.4 ENE 6 7 1013.3 - 0.0 - - - - - - -
10/04:30am 16.9 ENE 6 7 1013.2 - 0.0 - - - - - - -
10/04:00am 16.3 ENE 4 6 1013.1 - 0.0 - - - - - - -
10/03:30am 16.8 ENE 5 7 1012.7 - 0.0 - - - - - - -
10/03:00am 15.9 ENE 5 6 1012.5 - 0.0 - - - - - - -
10/02:30am 15.2 ENE 2 3 1012.6 - 0.0 - - - - - - -
10/02:00am 16.9 E 4 5 1012.4 - 0.0 - - - - - - -
10/01:30am 17.4 E 5 7 1012.4 - 0.0 - - - - - - -
10/01:00am 18.1 E 3 4 1012.6 - 0.0 - - - - - - -
10/12:30am 18.5 ENE 5 6 1012.7 - 0.0 - - - - - - -
10/12:00am 17.8 ENE 2 3 1012.9 - 0.0 - - - - - - -
 
Date/Time
WST
Temp
°C
Wind Pressure Rain since
9am
mm
Weather Cloud Vis
km
Sea
Height
m
Swell
Dir  Spd
kts
Gust
kts
hPa Trend Height
m
Period
s
Dir
09/11:30pm 17.9 ENE 4 5 1013.0 - 0.0 - - - - - - -
09/11:00pm 18.3 ENE 5 5 1013.0 - 0.0 - - - - - - -
09/10:30pm 18.2 NE 4 5 1013.1 - 0.0 - - - - - - -
09/10:00pm 19.2 ENE 6 6 1013.2 - 0.0 - - - - - - -
09/09:30pm 20.1 ENE 4 5 1013.4 - 0.0 - - - - - - -
09/09:00pm 21.1 ENE 7 9 1013.3 - 0.0 - - - - - - -
09/08:30pm 21.2 ENE 4 5 1013.5 - 0.0 - - - - - - -
09/08:00pm 22.7 ENE 6 10 1013.2 - 0.0 - - - - - - -
09/07:30pm 23.7 E 11 16 1013.1 - 0.0 - - - - - - -
09/07:00pm 23.9 E 11 17 1013.2 - 0.0 - - - - - - -
09/06:30pm 24.3 ENE 10 16 1013.0 - 0.0 - - - - - - -
09/06:00pm 24.6 E 8 13 1012.9 - 0.0 - - - - - - -
09/05:30pm 24.4 ESE 11 16 1012.6 - 0.0 - - - - - - -
09/05:00pm 23.9 E 11 16 1012.5 - 0.0 - - - - - - -
09/04:30pm 25.5 ESE 12 18 1012.4 - 0.0 - - - - - - -
09/04:00pm 26.2 ESE 13 20 1012.4 - 0.0 - - - - - - -
09/03:30pm 25.8 ESE 14 20 1012.6 - 0.0 - - - - - - -
09/03:00pm 26.1 ESE 15 22 1012.9 - 0.0 - - - - - - -
09/02:30pm 26.1 ESE 13 18 1013.1 - 0.0 - - - - - - -
09/02:00pm 26.0 ESE 13 20 1013.4 - 0.0 - - - - - - -
09/01:30pm 25.1 ESE 15 22 1013.6 - 0.0 - - - - - - -
09/01:00pm 25.5 ESE 15 23 1013.7 - 0.0 - - - - - - -
09/12:30pm 25.9 ESE 16 21 1014.0 - 0.0 - - - - - - -
09/12:00pm 25.8 ESE 15 21 1014.4 - 0.0 - - - - - - -
09/11:30am 24.9 SE 11 18 1015.0 - 0.0 - - - - - - -
09/11:00am 24.3 ESE 13 17 1015.3 - 0.0 - - - - - - -
09/10:30am 23.0 SSE 12 16 1015.8 - 0.0 - - - - - - -
09/10:00am 23.6 SSE 9 12 1016.2 - 0.0 - - - - - - -
09/09:30am 23.5 SE 8 11 1016.4 - 0.0 - - - - - - -
09/09:00am 23.0 SE 8 10 1016.6 - 0.0 - - - - - - -
09/08:30am 22.9 ESE 5 7 1017.1 - 0.0 - - - - - - -
09/08:00am 22.4 ENE 4 7 1017.5 - 0.0 - - - - - - -
09/07:30am 19.4 NE 3 5 1017.6 - 0.0 - - - - - - -
09/07:00am 17.4 ENE 3 5 1017.7 - 0.0 - - - - - - -
09/06:30am 14.9 E 2 4 1017.5 - 0.0 - - - - - - -
09/06:00am 11.8 NE 3 3 1017.1 - 0.0 - - - - - - -
09/05:30am 11.0 E 3 4 1017.0 - 0.0 - - - - - - -
09/05:00am 10.0 NE 3 4 1016.7 - 0.0 - - - - - - -
09/04:30am 10.2 NE 3 3 1016.4 - 0.0 - - - - - - -
09/04:00am 10.6 ENE 5 6 1016.1 - 0.0 - - - - - - -
09/03:30am 11.2 ENE 6 7 1016.2 - 0.0 - - - - - - -
09/03:00am 11.9 ENE 6 7 1016.4 - 0.0 - - - - - - -
09/02:30am 12.5 ENE 6 7 1016.4 - 0.0 - - - - - - -
09/02:00am 12.7 ENE 5 7 1016.7 - 0.0 - - - - - - -
09/01:30am 12.8 ENE 5 7 1016.9 - 0.0 - - - - - - -

Other Formats:

Comma delimited format used in spreadsheet applications
http://www.bom.gov.au/fwo/IDW60701/IDW60701.95635.axf

JavaScript Object Notation format (JSON) in row-major order
http://www.bom.gov.au/fwo/IDW60701/IDW60701.95635.json